sensor_id;sensor_type;location;lat;lon;timestamp;P1;durP1;ratioP1;P2;durP2;ratioP2
17763;SDS011;22245;52.832;13.816;2022-09-29T00:01:51;4.63;;;3.60;;
17763;SDS011;22245;52.832;13.816;2022-09-29T00:05:13;5.90;;;4.00;;
17763;SDS011;22245;52.832;13.816;2022-09-29T00:08:35;4.33;;;3.83;;
17763;SDS011;22245;52.832;13.816;2022-09-29T00:11:57;5.20;;;3.80;;
17763;SDS011;22245;52.832;13.816;2022-09-29T00:15:18;5.03;;;3.70;;
17763;SDS011;22245;52.832;13.816;2022-09-29T00:18:41;5.20;;;3.83;;
17763;SDS011;22245;52.832;13.816;2022-09-29T00:22:03;6.63;;;3.80;;
17763;SDS011;22245;52.832;13.816;2022-09-29T00:25:24;6.87;;;3.50;;
17763;SDS011;22245;52.832;13.816;2022-09-29T00:28:47;7.13;;;4.00;;
17763;SDS011;22245;52.832;13.816;2022-09-29T00:32:11;5.20;;;3.90;;
17763;SDS011;22245;52.832;13.816;2022-09-29T00:35:34;6.23;;;3.73;;
17763;SDS011;22245;52.832;13.816;2022-09-29T00:38:55;6.33;;;4.23;;
17763;SDS011;22245;52.832;13.816;2022-09-29T00:42:18;7.77;;;4.03;;
17763;SDS011;22245;52.832;13.816;2022-09-29T00:45:40;6.07;;;3.23;;
17763;SDS011;22245;52.832;13.816;2022-09-29T00:49:04;6.20;;;3.90;;
17763;SDS011;22245;52.832;13.816;2022-09-29T00:52:32;7.87;;;4.03;;
17763;SDS011;22245;52.832;13.816;2022-09-29T00:55:58;4.77;;;3.57;;
17763;SDS011;22245;52.832;13.816;2022-09-29T00:59:23;4.40;;;3.73;;
17763;SDS011;22245;52.832;13.816;2022-09-29T01:02:53;6.20;;;4.10;;
17763;SDS011;22245;52.832;13.816;2022-09-29T01:06:21;6.00;;;3.93;;
17763;SDS011;22245;52.832;13.816;2022-09-29T01:09:47;4.77;;;3.73;;
17763;SDS011;22245;52.832;13.816;2022-09-29T01:13:12;6.00;;;4.03;;
17763;SDS011;22245;52.832;13.816;2022-09-29T01:16:34;5.27;;;3.73;;
17763;SDS011;22245;52.832;13.816;2022-09-29T01:20:00;5.27;;;3.90;;
17763;SDS011;22245;52.832;13.816;2022-09-29T01:27:47;4.77;;;3.73;;
17763;SDS011;22245;52.832;13.816;2022-09-29T01:31:25;7.27;;;4.50;;
17763;SDS011;22245;52.832;13.816;2022-09-29T01:34:58;7.10;;;4.87;;
17763;SDS011;22245;52.832;13.816;2022-09-29T01:38:30;8.33;;;5.03;;
17763;SDS011;22245;52.832;13.816;2022-09-29T01:42:02;8.20;;;5.27;;
17763;SDS011;22245;52.832;13.816;2022-09-29T01:45:29;9.13;;;5.50;;
17763;SDS011;22245;52.832;13.816;2022-09-29T01:48:55;9.37;;;4.80;;
17763;SDS011;22245;52.832;13.816;2022-09-29T01:52:19;6.27;;;3.97;;
17763;SDS011;22245;52.832;13.816;2022-09-29T01:55:45;5.20;;;3.97;;
17763;SDS011;22245;52.832;13.816;2022-09-29T01:59:11;4.43;;;3.53;;
17763;SDS011;22245;52.832;13.816;2022-09-29T02:02:39;4.73;;;3.63;;
17763;SDS011;22245;52.832;13.816;2022-09-29T02:06:08;3.93;;;3.20;;
17763;SDS011;22245;52.832;13.816;2022-09-29T02:09:34;3.43;;;3.07;;
17763;SDS011;22245;52.832;13.816;2022-09-29T02:13:02;5.07;;;3.57;;
17763;SDS011;22245;52.832;13.816;2022-09-29T02:16:28;3.20;;;2.70;;
17763;SDS011;22245;52.832;13.816;2022-09-29T02:19:51;4.07;;;3.30;;
17763;SDS011;22245;52.832;13.816;2022-09-29T02:23:15;3.63;;;2.83;;
17763;SDS011;22245;52.832;13.816;2022-09-29T02:26:36;3.97;;;3.30;;
17763;SDS011;22245;52.832;13.816;2022-09-29T02:30:00;3.43;;;3.03;;
17763;SDS011;22245;52.832;13.816;2022-09-29T02:33:23;3.40;;;3.00;;
17763;SDS011;22245;52.832;13.816;2022-09-29T02:36:48;4.20;;;3.30;;
17763;SDS011;22245;52.832;13.816;2022-09-29T02:40:24;3.37;;;2.80;;
17763;SDS011;22245;52.832;13.816;2022-09-29T02:43:58;4.10;;;3.10;;
17763;SDS011;22245;52.832;13.816;2022-09-29T02:47:36;4.37;;;3.30;;
17763;SDS011;22245;52.832;13.816;2022-09-29T02:51:12;4.63;;;2.73;;
17763;SDS011;22245;52.832;13.816;2022-09-29T02:54:43;4.23;;;3.43;;
17763;SDS011;22245;52.832;13.816;2022-09-29T02:58:14;5.27;;;3.37;;
17763;SDS011;22245;52.832;13.816;2022-09-29T03:01:46;4.53;;;2.97;;
17763;SDS011;22245;52.832;13.816;2022-09-29T03:05:11;4.17;;;2.90;;
17763;SDS011;22245;52.832;13.816;2022-09-29T03:08:34;4.13;;;3.07;;
17763;SDS011;22245;52.832;13.816;2022-09-29T03:11:55;4.63;;;3.60;;
17763;SDS011;22245;52.832;13.816;2022-09-29T03:15:18;5.07;;;3.17;;
17763;SDS011;22245;52.832;13.816;2022-09-29T03:18:40;5.67;;;3.50;;
17763;SDS011;22245;52.832;13.816;2022-09-29T03:22:03;4.23;;;3.30;;
17763;SDS011;22245;52.832;13.816;2022-09-29T03:25:25;4.23;;;3.50;;
17763;SDS011;22245;52.832;13.816;2022-09-29T03:28:47;5.70;;;4.17;;
17763;SDS011;22245;52.832;13.816;2022-09-29T03:32:09;5.30;;;3.80;;
17763;SDS011;22245;52.832;13.816;2022-09-29T03:35:31;5.53;;;3.80;;
17763;SDS011;22245;52.832;13.816;2022-09-29T03:38:52;5.47;;;3.43;;
17763;SDS011;22245;52.832;13.816;2022-09-29T03:42:13;3.83;;;3.17;;
17763;SDS011;22245;52.832;13.816;2022-09-29T03:45:35;5.43;;;3.50;;
17763;SDS011;22245;52.832;13.816;2022-09-29T03:48:58;6.97;;;3.70;;
17763;SDS011;22245;52.832;13.816;2022-09-29T03:52:19;5.33;;;3.97;;
17763;SDS011;22245;52.832;13.816;2022-09-29T03:55:40;5.27;;;3.60;;
17763;SDS011;22245;52.832;13.816;2022-09-29T03:59:06;5.87;;;4.40;;
17763;SDS011;22245;52.832;13.816;2022-09-29T04:02:31;7.00;;;4.60;;
17763;SDS011;22245;52.832;13.816;2022-09-29T04:05:55;8.27;;;4.20;;
17763;SDS011;22245;52.832;13.816;2022-09-29T04:09:17;9.13;;;4.90;;
17763;SDS011;22245;52.832;13.816;2022-09-29T04:12:38;5.87;;;4.53;;
17763;SDS011;22245;52.832;13.816;2022-09-29T04:16:01;7.30;;;4.73;;
17763;SDS011;22245;52.832;13.816;2022-09-29T04:19:24;5.97;;;4.27;;
17763;SDS011;22245;52.832;13.816;2022-09-29T04:22:46;6.60;;;4.43;;
17763;SDS011;22245;52.832;13.816;2022-09-29T04:26:08;8.23;;;4.83;;
17763;SDS011;22245;52.832;13.816;2022-09-29T04:29:30;6.63;;;5.43;;
17763;SDS011;22245;52.832;13.816;2022-09-29T04:32:51;5.97;;;4.63;;
17763;SDS011;22245;52.832;13.816;2022-09-29T04:36:13;7.43;;;5.27;;
17763;SDS011;22245;52.832;13.816;2022-09-29T04:39:37;7.07;;;4.27;;
17763;SDS011;22245;52.832;13.816;2022-09-29T04:42:59;9.20;;;4.10;;
17763;SDS011;22245;52.832;13.816;2022-09-29T04:46:21;6.43;;;4.70;;
17763;SDS011;22245;52.832;13.816;2022-09-29T04:49:42;6.37;;;5.00;;
17763;SDS011;22245;52.832;13.816;2022-09-29T04:53:04;6.83;;;5.47;;
17763;SDS011;22245;52.832;13.816;2022-09-29T04:56:27;6.27;;;4.43;;
17763;SDS011;22245;52.832;13.816;2022-09-29T04:59:50;7.77;;;5.90;;
17763;SDS011;22245;52.832;13.816;2022-09-29T05:03:11;8.87;;;7.53;;
17763;SDS011;22245;52.832;13.816;2022-09-29T05:06:33;12.43;;;9.37;;
17763;SDS011;22245;52.832;13.816;2022-09-29T05:09:58;9.80;;;8.30;;
17763;SDS011;22245;52.832;13.816;2022-09-29T05:13:21;9.63;;;6.80;;
17763;SDS011;22245;52.832;13.816;2022-09-29T05:16:43;8.13;;;6.30;;
17763;SDS011;22245;52.832;13.816;2022-09-29T05:20:05;9.03;;;6.40;;
17763;SDS011;22245;52.832;13.816;2022-09-29T05:23:27;8.50;;;6.17;;
17763;SDS011;22245;52.832;13.816;2022-09-29T05:26:48;7.37;;;5.00;;
17763;SDS011;22245;52.832;13.816;2022-09-29T05:30:18;9.27;;;5.40;;
17763;SDS011;22245;52.832;13.816;2022-09-29T05:33:40;11.37;;;6.10;;
17763;SDS011;22245;52.832;13.816;2022-09-29T05:37:02;10.80;;;5.40;;
17763;SDS011;22245;52.832;13.816;2022-09-29T05:40:24;7.37;;;5.17;;
17763;SDS011;22245;52.832;13.816;2022-09-29T05:43:46;9.20;;;5.03;;
17763;SDS011;22245;52.832;13.816;2022-09-29T05:47:09;7.27;;;5.03;;
17763;SDS011;22245;52.832;13.816;2022-09-29T05:50:30;12.60;;;5.90;;
17763;SDS011;22245;52.832;13.816;2022-09-29T05:53:52;9.70;;;6.67;;
17763;SDS011;22245;52.832;13.816;2022-09-29T05:57:14;12.20;;;8.00;;
17763;SDS011;22245;52.832;13.816;2022-09-29T06:00:35;10.70;;;6.90;;
17763;SDS011;22245;52.832;13.816;2022-09-29T06:03:58;12.37;;;7.17;;
17763;SDS011;22245;52.832;13.816;2022-09-29T06:07:19;11.23;;;7.57;;
17763;SDS011;22245;52.832;13.816;2022-09-29T06:10:41;11.93;;;8.30;;
17763;SDS011;22245;52.832;13.816;2022-09-29T06:14:02;16.93;;;9.33;;
17763;SDS011;22245;52.832;13.816;2022-09-29T06:17:24;16.50;;;9.57;;
17763;SDS011;22245;52.832;13.816;2022-09-29T06:20:47;15.77;;;10.03;;
17763;SDS011;22245;52.832;13.816;2022-09-29T06:24:08;15.43;;;10.03;;
17763;SDS011;22245;52.832;13.816;2022-09-29T06:27:29;16.43;;;10.17;;
17763;SDS011;22245;52.832;13.816;2022-09-29T06:30:51;16.90;;;10.37;;
17763;SDS011;22245;52.832;13.816;2022-09-29T06:34:12;15.63;;;9.00;;
17763;SDS011;22245;52.832;13.816;2022-09-29T06:37:35;15.47;;;9.37;;
17763;SDS011;22245;52.832;13.816;2022-09-29T06:40:58;15.57;;;9.90;;
17763;SDS011;22245;52.832;13.816;2022-09-29T06:44:20;18.83;;;9.60;;
17763;SDS011;22245;52.832;13.816;2022-09-29T06:47:43;15.83;;;9.07;;
17763;SDS011;22245;52.832;13.816;2022-09-29T06:51:05;17.43;;;9.53;;
17763;SDS011;22245;52.832;13.816;2022-09-29T06:54:30;13.83;;;8.87;;
17763;SDS011;22245;52.832;13.816;2022-09-29T06:57:52;15.17;;;9.63;;
17763;SDS011;22245;52.832;13.816;2022-09-29T07:01:19;16.07;;;10.03;;
17763;SDS011;22245;52.832;13.816;2022-09-29T07:04:40;16.43;;;10.30;;
17763;SDS011;22245;52.832;13.816;2022-09-29T07:08:02;15.40;;;9.13;;
17763;SDS011;22245;52.832;13.816;2022-09-29T07:11:25;16.60;;;9.97;;
17763;SDS011;22245;52.832;13.816;2022-09-29T07:14:47;16.00;;;10.27;;
17763;SDS011;22245;52.832;13.816;2022-09-29T07:18:09;17.73;;;9.83;;
17763;SDS011;22245;52.832;13.816;2022-09-29T07:21:31;17.60;;;10.77;;
17763;SDS011;22245;52.832;13.816;2022-09-29T07:24:53;19.37;;;11.43;;
17763;SDS011;22245;52.832;13.816;2022-09-29T07:28:16;22.20;;;11.87;;
17763;SDS011;22245;52.832;13.816;2022-09-29T07:31:38;20.70;;;12.47;;
17763;SDS011;22245;52.832;13.816;2022-09-29T07:35:10;19.93;;;11.73;;
17763;SDS011;22245;52.832;13.816;2022-09-29T07:38:32;20.77;;;12.40;;
17763;SDS011;22245;52.832;13.816;2022-09-29T07:41:53;20.07;;;12.43;;
17763;SDS011;22245;52.832;13.816;2022-09-29T07:45:17;18.43;;;11.67;;
17763;SDS011;22245;52.832;13.816;2022-09-29T07:48:38;21.63;;;12.87;;
17763;SDS011;22245;52.832;13.816;2022-09-29T07:52:00;22.33;;;13.27;;
17763;SDS011;22245;52.832;13.816;2022-09-29T07:55:21;23.47;;;13.73;;
17763;SDS011;22245;52.832;13.816;2022-09-29T07:58:45;22.80;;;12.93;;
17763;SDS011;22245;52.832;13.816;2022-09-29T08:02:10;23.13;;;12.97;;
17763;SDS011;22245;52.832;13.816;2022-09-29T08:05:32;25.37;;;14.57;;
17763;SDS011;22245;52.832;13.816;2022-09-29T08:08:54;27.67;;;15.33;;
17763;SDS011;22245;52.832;13.816;2022-09-29T08:12:24;24.47;;;14.07;;
17763;SDS011;22245;52.832;13.816;2022-09-29T08:15:59;26.60;;;14.30;;
17763;SDS011;22245;52.832;13.816;2022-09-29T08:19:22;23.17;;;14.20;;
17763;SDS011;22245;52.832;13.816;2022-09-29T08:22:45;27.02;;;14.20;;
17763;SDS011;22245;52.832;13.816;2022-09-29T08:26:08;26.20;;;14.17;;
17763;SDS011;22245;52.832;13.816;2022-09-29T08:29:31;27.80;;;14.77;;
17763;SDS011;22245;52.832;13.816;2022-09-29T08:33:04;21.87;;;13.70;;
17763;SDS011;22245;52.832;13.816;2022-09-29T08:36:32;25.67;;;15.40;;
17763;SDS011;22245;52.832;13.816;2022-09-29T08:39:54;25.35;;;15.05;;
17763;SDS011;22245;52.832;13.816;2022-09-29T08:43:17;21.83;;;14.30;;
17763;SDS011;22245;52.832;13.816;2022-09-29T08:46:54;25.95;;;15.60;;
17763;SDS011;22245;52.832;13.816;2022-09-29T08:50:30;25.75;;;15.15;;
17763;SDS011;22245;52.832;13.816;2022-09-29T08:53:57;26.40;;;15.88;;
17763;SDS011;22245;52.832;13.816;2022-09-29T08:57:28;25.55;;;14.70;;
17763;SDS011;22245;52.832;13.816;2022-09-29T09:00:52;27.75;;;16.08;;
17763;SDS011;22245;52.832;13.816;2022-09-29T09:04:27;25.80;;;15.75;;
17763;SDS011;22245;52.832;13.816;2022-09-29T09:08:17;24.67;;;15.48;;
17763;SDS011;22245;52.832;13.816;2022-09-29T09:11:52;28.58;;;15.60;;
17763;SDS011;22245;52.832;13.816;2022-09-29T09:15:30;24.02;;;15.63;;
17763;SDS011;22245;52.832;13.816;2022-09-29T09:19:02;26.75;;;16.02;;
17763;SDS011;22245;52.832;13.816;2022-09-29T09:22:41;26.73;;;15.02;;
17763;SDS011;22245;52.832;13.816;2022-09-29T09:26:09;25.73;;;15.77;;
17763;SDS011;22245;52.832;13.816;2022-09-29T09:29:35;23.85;;;15.40;;
17763;SDS011;22245;52.832;13.816;2022-09-29T09:33:04;24.33;;;15.45;;
17763;SDS011;22245;52.832;13.816;2022-09-29T09:36:32;24.02;;;15.75;;
17763;SDS011;22245;52.832;13.816;2022-09-29T09:39:57;24.80;;;14.80;;
17763;SDS011;22245;52.832;13.816;2022-09-29T09:43:25;26.88;;;15.52;;
17763;SDS011;22245;52.832;13.816;2022-09-29T09:46:51;25.10;;;14.85;;
17763;SDS011;22245;52.832;13.816;2022-09-29T09:50:17;21.15;;;14.10;;
17763;SDS011;22245;52.832;13.816;2022-09-29T09:53:40;25.05;;;15.32;;
17763;SDS011;22245;52.832;13.816;2022-09-29T10:00:50;20.08;;;13.38;;
17763;SDS011;22245;52.832;13.816;2022-09-29T10:04:16;19.17;;;13.05;;
17763;SDS011;22245;52.832;13.816;2022-09-29T10:07:38;17.77;;;12.27;;
17763;SDS011;22245;52.832;13.816;2022-09-29T10:10:59;18.95;;;13.02;;
17763;SDS011;22245;52.832;13.816;2022-09-29T10:14:22;18.25;;;12.50;;
17763;SDS011;22245;52.832;13.816;2022-09-29T10:17:47;19.35;;;13.20;;
17763;SDS011;22245;52.832;13.816;2022-09-29T10:21:21;19.67;;;12.80;;
17763;SDS011;22245;52.832;13.816;2022-09-29T10:25:05;18.67;;;12.82;;
17763;SDS011;22245;52.832;13.816;2022-09-29T10:28:35;17.27;;;12.10;;
17763;SDS011;22245;52.832;13.816;2022-09-29T10:32:04;21.23;;;14.13;;
17763;SDS011;22245;52.832;13.816;2022-09-29T10:35:27;19.95;;;11.88;;
17763;SDS011;22245;52.832;13.816;2022-09-29T10:38:56;19.15;;;11.80;;
17763;SDS011;22245;52.832;13.816;2022-09-29T10:42:22;16.60;;;11.95;;
17763;SDS011;22245;52.832;13.816;2022-09-29T10:45:46;17.20;;;11.75;;
17763;SDS011;22245;52.832;13.816;2022-09-29T10:49:11;15.98;;;12.10;;
17763;SDS011;22245;52.832;13.816;2022-09-29T10:52:34;20.20;;;12.20;;
17763;SDS011;22245;52.832;13.816;2022-09-29T10:55:59;17.23;;;12.23;;
17763;SDS011;22245;52.832;13.816;2022-09-29T10:59:24;17.92;;;11.40;;
17763;SDS011;22245;52.832;13.816;2022-09-29T11:02:48;14.40;;;11.60;;
17763;SDS011;22245;52.832;13.816;2022-09-29T11:06:10;16.40;;;12.38;;
17763;SDS011;22245;52.832;13.816;2022-09-29T11:09:37;19.42;;;12.07;;
17763;SDS011;22245;52.832;13.816;2022-09-29T11:13:07;17.45;;;12.07;;
17763;SDS011;22245;52.832;13.816;2022-09-29T11:16:58;17.10;;;12.30;;
17763;SDS011;22245;52.832;13.816;2022-09-29T11:20:24;16.20;;;11.98;;
17763;SDS011;22245;52.832;13.816;2022-09-29T11:23:51;21.13;;;12.82;;
17763;SDS011;22245;52.832;13.816;2022-09-29T11:27:23;19.45;;;13.27;;
17763;SDS011;22245;52.832;13.816;2022-09-29T11:30:58;20.10;;;12.80;;
17763;SDS011;22245;52.832;13.816;2022-09-29T11:34:42;18.58;;;12.90;;
17763;SDS011;22245;52.832;13.816;2022-09-29T11:42:16;18.10;;;12.27;;
17763;SDS011;22245;52.832;13.816;2022-09-29T11:45:49;16.17;;;11.75;;
17763;SDS011;22245;52.832;13.816;2022-09-29T11:49:30;18.65;;;13.02;;
17763;SDS011;22245;52.832;13.816;2022-09-29T11:53:18;22.42;;;13.32;;
17763;SDS011;22245;52.832;13.816;2022-09-29T11:56:52;17.50;;;12.45;;
17763;SDS011;22245;52.832;13.816;2022-09-29T12:00:20;16.75;;;10.68;;
17763;SDS011;22245;52.832;13.816;2022-09-29T12:03:48;15.18;;;10.75;;
17763;SDS011;22245;52.832;13.816;2022-09-29T12:07:32;15.48;;;10.63;;
17763;SDS011;22245;52.832;13.816;2022-09-29T12:11:04;16.45;;;11.48;;
17763;SDS011;22245;52.832;13.816;2022-09-29T12:15:06;16.70;;;12.00;;
17763;SDS011;22245;52.832;13.816;2022-09-29T12:18:39;15.40;;;10.75;;
17763;SDS011;22245;52.832;13.816;2022-09-29T12:22:07;16.55;;;11.00;;
17763;SDS011;22245;52.832;13.816;2022-09-29T12:25:34;19.80;;;11.02;;
17763;SDS011;22245;52.832;13.816;2022-09-29T12:29:00;14.55;;;9.57;;
17763;SDS011;22245;52.832;13.816;2022-09-29T12:32:26;14.95;;;9.75;;
17763;SDS011;22245;52.832;13.816;2022-09-29T12:35:54;16.45;;;10.35;;
17763;SDS011;22245;52.832;13.816;2022-09-29T12:39:49;15.57;;;10.98;;
17763;SDS011;22245;52.832;13.816;2022-09-29T12:43:22;16.63;;;10.73;;
17763;SDS011;22245;52.832;13.816;2022-09-29T12:46:50;17.55;;;10.98;;
17763;SDS011;22245;52.832;13.816;2022-09-29T12:50:21;17.23;;;11.43;;
17763;SDS011;22245;52.832;13.816;2022-09-29T12:53:52;16.60;;;11.38;;
17763;SDS011;22245;52.832;13.816;2022-09-29T12:57:23;15.77;;;10.90;;
17763;SDS011;22245;52.832;13.816;2022-09-29T13:00:50;17.88;;;10.50;;
17763;SDS011;22245;52.832;13.816;2022-09-29T13:04:49;19.88;;;12.02;;
17763;SDS011;22245;52.832;13.816;2022-09-29T13:08:40;19.65;;;12.02;;
17763;SDS011;22245;52.832;13.816;2022-09-29T13:12:28;20.65;;;12.73;;
17763;SDS011;22245;52.832;13.816;2022-09-29T13:16:04;19.30;;;11.93;;
17763;SDS011;22245;52.832;13.816;2022-09-29T13:19:47;14.35;;;10.52;;
17763;SDS011;22245;52.832;13.816;2022-09-29T13:23:27;16.25;;;10.07;;
17763;SDS011;22245;52.832;13.816;2022-09-29T13:27:20;17.70;;;10.25;;
17763;SDS011;22245;52.832;13.816;2022-09-29T13:30:49;14.07;;;10.15;;
17763;SDS011;22245;52.832;13.816;2022-09-29T13:34:18;14.57;;;9.35;;
17763;SDS011;22245;52.832;13.816;2022-09-29T13:37:49;12.60;;;8.57;;
17763;SDS011;22245;52.832;13.816;2022-09-29T13:41:15;13.68;;;8.32;;
17763;SDS011;22245;52.832;13.816;2022-09-29T13:48:50;13.18;;;8.23;;
17763;SDS011;22245;52.832;13.816;2022-09-29T13:52:29;11.38;;;7.65;;
17763;SDS011;22245;52.832;13.816;2022-09-29T13:55:52;9.90;;;6.90;;
17763;SDS011;22245;52.832;13.816;2022-09-29T13:59:14;12.00;;;6.95;;
17763;SDS011;22245;52.832;13.816;2022-09-29T14:02:42;10.82;;;6.75;;
17763;SDS011;22245;52.832;13.816;2022-09-29T14:06:11;11.07;;;7.18;;
17763;SDS011;22245;52.832;13.816;2022-09-29T14:09:56;13.32;;;7.75;;
17763;SDS011;22245;52.832;13.816;2022-09-29T14:13:26;9.48;;;7.22;;
17763;SDS011;22245;52.832;13.816;2022-09-29T14:16:52;11.07;;;7.10;;
17763;SDS011;22245;52.832;13.816;2022-09-29T14:20:21;10.10;;;6.60;;
17763;SDS011;22245;52.832;13.816;2022-09-29T14:23:49;8.90;;;6.40;;
17763;SDS011;22245;52.832;13.816;2022-09-29T14:27:20;10.30;;;7.35;;
17763;SDS011;22245;52.832;13.816;2022-09-29T14:30:47;9.63;;;6.55;;
17763;SDS011;22245;52.832;13.816;2022-09-29T14:34:12;9.80;;;6.95;;
17763;SDS011;22245;52.832;13.816;2022-09-29T14:37:36;12.73;;;6.68;;
17763;SDS011;22245;52.832;13.816;2022-09-29T14:41:00;10.25;;;6.47;;
17763;SDS011;22245;52.832;13.816;2022-09-29T14:44:26;8.70;;;6.47;;
17763;SDS011;22245;52.832;13.816;2022-09-29T14:48:12;8.40;;;6.22;;
17763;SDS011;22245;52.832;13.816;2022-09-29T14:52:01;9.07;;;6.20;;
17763;SDS011;22245;52.832;13.816;2022-09-29T14:55:35;8.25;;;6.10;;
17763;SDS011;22245;52.832;13.816;2022-09-29T14:59:09;9.70;;;6.25;;
17763;SDS011;22245;52.832;13.816;2022-09-29T15:02:42;7.00;;;5.38;;
17763;SDS011;22245;52.832;13.816;2022-09-29T15:06:19;9.50;;;6.18;;
17763;SDS011;22245;52.832;13.816;2022-09-29T15:09:47;7.65;;;5.72;;
17763;SDS011;22245;52.832;13.816;2022-09-29T15:13:14;11.13;;;5.75;;
17763;SDS011;22245;52.832;13.816;2022-09-29T15:16:40;10.18;;;5.93;;
17763;SDS011;22245;52.832;13.816;2022-09-29T15:20:14;8.10;;;5.82;;
17763;SDS011;22245;52.832;13.816;2022-09-29T15:23:46;9.23;;;5.82;;
17763;SDS011;22245;52.832;13.816;2022-09-29T15:27:23;9.07;;;5.13;;
17763;SDS011;22245;52.832;13.816;2022-09-29T15:30:45;9.05;;;5.40;;
17763;SDS011;22245;52.832;13.816;2022-09-29T15:34:11;11.63;;;7.38;;
17763;SDS011;22245;52.832;13.816;2022-09-29T15:37:52;15.27;;;7.60;;
17763;SDS011;22245;52.832;13.816;2022-09-29T15:41:19;24.90;;;13.25;;
17763;SDS011;22245;52.832;13.816;2022-09-29T15:44:51;8.90;;;5.60;;
17763;SDS011;22245;52.832;13.816;2022-09-29T15:48:15;10.00;;;6.72;;
17763;SDS011;22245;52.832;13.816;2022-09-29T15:51:37;9.90;;;5.22;;
17763;SDS011;22245;52.832;13.816;2022-09-29T15:55:02;14.32;;;8.82;;
17763;SDS011;22245;52.832;13.816;2022-09-29T15:58:34;17.60;;;11.70;;
17763;SDS011;22245;52.832;13.816;2022-09-29T16:02:03;13.43;;;9.15;;
17763;SDS011;22245;52.832;13.816;2022-09-29T16:05:27;10.50;;;7.85;;
17763;SDS011;22245;52.832;13.816;2022-09-29T16:08:52;11.00;;;7.10;;
17763;SDS011;22245;52.832;13.816;2022-09-29T16:12:20;11.70;;;7.20;;
17763;SDS011;22245;52.832;13.816;2022-09-29T16:15:42;7.85;;;6.18;;
17763;SDS011;22245;52.832;13.816;2022-09-29T16:19:07;5.95;;;4.68;;
17763;SDS011;22245;52.832;13.816;2022-09-29T16:22:33;6.70;;;4.93;;
17763;SDS011;22245;52.832;13.816;2022-09-29T16:26:08;8.50;;;5.35;;
17763;SDS011;22245;52.832;13.816;2022-09-29T16:29:36;7.40;;;5.07;;
17763;SDS011;22245;52.832;13.816;2022-09-29T16:33:02;10.45;;;6.38;;
17763;SDS011;22245;52.832;13.816;2022-09-29T16:36:32;6.78;;;5.60;;
17763;SDS011;22245;52.832;13.816;2022-09-29T16:39:56;5.60;;;5.00;;
17763;SDS011;22245;52.832;13.816;2022-09-29T16:43:19;8.90;;;5.57;;
17763;SDS011;22245;52.832;13.816;2022-09-29T16:46:45;9.63;;;5.22;;
17763;SDS011;22245;52.832;13.816;2022-09-29T16:50:11;10.98;;;5.25;;
17763;SDS011;22245;52.832;13.816;2022-09-29T16:53:35;8.98;;;5.00;;
17763;SDS011;22245;52.832;13.816;2022-09-29T16:57:14;8.98;;;4.97;;
17763;SDS011;22245;52.832;13.816;2022-09-29T17:00:43;10.18;;;5.13;;
17763;SDS011;22245;52.832;13.816;2022-09-29T17:04:07;6.82;;;4.85;;
17763;SDS011;22245;52.832;13.816;2022-09-29T17:07:30;11.00;;;6.63;;
17763;SDS011;22245;52.832;13.816;2022-09-29T17:10:52;14.82;;;8.95;;
17763;SDS011;22245;52.832;13.816;2022-09-29T17:14:16;15.52;;;8.88;;
17763;SDS011;22245;52.832;13.816;2022-09-29T17:17:42;19.70;;;10.65;;
17763;SDS011;22245;52.832;13.816;2022-09-29T17:21:08;22.25;;;12.52;;
17763;SDS011;22245;52.832;13.816;2022-09-29T17:24:31;21.30;;;13.02;;
17763;SDS011;22245;52.832;13.816;2022-09-29T17:27:52;19.25;;;13.77;;
17763;SDS011;22245;52.832;13.816;2022-09-29T17:31:32;14.68;;;11.35;;
17763;SDS011;22245;52.832;13.816;2022-09-29T17:34:53;19.63;;;11.45;;
17763;SDS011;22245;52.832;13.816;2022-09-29T17:38:17;12.73;;;9.45;;
17763;SDS011;22245;52.832;13.816;2022-09-29T17:41:38;14.10;;;8.40;;
17763;SDS011;22245;52.832;13.816;2022-09-29T17:45:05;16.83;;;9.00;;
17763;SDS011;22245;52.832;13.816;2022-09-29T17:48:27;12.90;;;8.50;;
17763;SDS011;22245;52.832;13.816;2022-09-29T17:51:52;12.98;;;9.25;;
17763;SDS011;22245;52.832;13.816;2022-09-29T17:55:14;13.63;;;8.52;;
17763;SDS011;22245;52.832;13.816;2022-09-29T17:58:36;14.13;;;9.15;;
17763;SDS011;22245;52.832;13.816;2022-09-29T18:01:58;16.80;;;9.48;;
17763;SDS011;22245;52.832;13.816;2022-09-29T18:05:20;21.92;;;12.30;;
17763;SDS011;22245;52.832;13.816;2022-09-29T18:08:42;15.80;;;10.65;;
17763;SDS011;22245;52.832;13.816;2022-09-29T18:12:07;15.63;;;9.95;;
17763;SDS011;22245;52.832;13.816;2022-09-29T18:15:28;16.00;;;10.10;;
17763;SDS011;22245;52.832;13.816;2022-09-29T18:18:51;13.13;;;9.05;;
17763;SDS011;22245;52.832;13.816;2022-09-29T18:22:18;11.77;;;8.07;;
17763;SDS011;22245;52.832;13.816;2022-09-29T18:25:39;9.68;;;7.20;;
17763;SDS011;22245;52.832;13.816;2022-09-29T18:29:10;14.40;;;8.17;;
17763;SDS011;22245;52.832;13.816;2022-09-29T18:32:35;11.70;;;7.43;;
17763;SDS011;22245;52.832;13.816;2022-09-29T18:35:57;10.67;;;7.87;;
17763;SDS011;22245;52.832;13.816;2022-09-29T18:39:19;9.70;;;7.07;;
17763;SDS011;22245;52.832;13.816;2022-09-29T18:42:41;11.70;;;7.27;;
17763;SDS011;22245;52.832;13.816;2022-09-29T18:46:05;13.25;;;6.35;;
17763;SDS011;22245;52.832;13.816;2022-09-29T18:49:27;11.65;;;7.20;;
17763;SDS011;22245;52.832;13.816;2022-09-29T18:52:49;10.03;;;7.07;;
17763;SDS011;22245;52.832;13.816;2022-09-29T18:56:14;11.07;;;6.90;;
17763;SDS011;22245;52.832;13.816;2022-09-29T18:59:36;13.87;;;7.77;;
17763;SDS011;22245;52.832;13.816;2022-09-29T19:03:00;11.97;;;7.70;;
17763;SDS011;22245;52.832;13.816;2022-09-29T19:06:24;11.70;;;8.03;;
17763;SDS011;22245;52.832;13.816;2022-09-29T19:09:46;12.13;;;8.07;;
17763;SDS011;22245;52.832;13.816;2022-09-29T19:13:09;11.67;;;8.17;;
17763;SDS011;22245;52.832;13.816;2022-09-29T19:16:33;13.10;;;7.73;;
17763;SDS011;22245;52.832;13.816;2022-09-29T19:19:55;14.10;;;8.70;;
17763;SDS011;22245;52.832;13.816;2022-09-29T19:23:19;14.60;;;9.83;;
17763;SDS011;22245;52.832;13.816;2022-09-29T19:26:41;15.53;;;9.60;;
17763;SDS011;22245;52.832;13.816;2022-09-29T19:30:02;13.83;;;9.27;;
17763;SDS011;22245;52.832;13.816;2022-09-29T19:33:24;13.80;;;9.87;;
17763;SDS011;22245;52.832;13.816;2022-09-29T19:36:48;15.60;;;9.53;;
17763;SDS011;22245;52.832;13.816;2022-09-29T19:40:12;15.50;;;10.97;;
17763;SDS011;22245;52.832;13.816;2022-09-29T19:43:35;17.97;;;11.07;;
17763;SDS011;22245;52.832;13.816;2022-09-29T19:46:57;15.87;;;10.33;;
17763;SDS011;22245;52.832;13.816;2022-09-29T19:50:19;16.47;;;10.97;;
17763;SDS011;22245;52.832;13.816;2022-09-29T19:54:00;17.03;;;10.97;;
17763;SDS011;22245;52.832;13.816;2022-09-29T19:57:33;16.83;;;11.03;;
17763;SDS011;22245;52.832;13.816;2022-09-29T20:01:00;18.53;;;11.80;;
17763;SDS011;22245;52.832;13.816;2022-09-29T20:04:22;16.53;;;11.17;;
17763;SDS011;22245;52.832;13.816;2022-09-29T20:07:49;19.17;;;11.60;;
17763;SDS011;22245;52.832;13.816;2022-09-29T20:11:12;16.63;;;11.40;;
17763;SDS011;22245;52.832;13.816;2022-09-29T20:14:34;16.53;;;10.47;;
17763;SDS011;22245;52.832;13.816;2022-09-29T20:17:56;20.77;;;12.30;;
17763;SDS011;22245;52.832;13.816;2022-09-29T20:21:18;16.77;;;11.27;;
17763;SDS011;22245;52.832;13.816;2022-09-29T20:24:40;19.23;;;12.17;;